createdAt,value
2023-01-12T00:00:13.368Z,99518.60
2023-01-12T00:02:20.114Z,99519.16
2023-01-12T00:04:25.028Z,99520.48
2023-01-12T00:06:30.858Z,99520.30
2023-01-12T00:08:35.686Z,99525.80
2023-01-12T00:10:40.363Z,99531.38
2023-01-12T00:12:45.129Z,99532.27
2023-01-12T00:14:49.876Z,99528.00
2023-01-12T00:16:54.715Z,99527.13
2023-01-12T00:18:59.492Z,99525.70
2023-01-12T00:21:04.462Z,99529.48
2023-01-12T00:23:09.660Z,99529.15
2023-01-12T00:25:14.650Z,99530.45
2023-01-12T00:27:20.652Z,99527.27
2023-01-12T00:29:26.236Z,99532.41
2023-01-12T00:31:30.998Z,99531.65
2023-01-12T00:33:35.985Z,99532.96
2023-01-12T00:35:40.775Z,99530.80
2023-01-12T00:37:45.485Z,99532.89
2023-01-12T00:40:01.744Z,99537.52
2023-01-12T00:42:07.079Z,99540.52
2023-01-12T00:44:11.798Z,99539.47
2023-01-12T00:46:16.531Z,99540.59
2023-01-12T00:48:21.242Z,99536.21
2023-01-12T00:50:25.907Z,99543.42
2023-01-12T00:52:31.828Z,99542.49
2023-01-12T00:54:37.277Z,99546.61
2023-01-12T00:56:41.963Z,99546.88
2023-01-12T00:58:46.854Z,99552.62
2023-01-12T01:00:51.576Z,99554.19
2023-01-12T01:02:56.392Z,99556.02
2023-01-12T01:05:01.251Z,99557.98
2023-01-12T01:07:06.247Z,99554.91
2023-01-12T01:09:11.375Z,99555.91
2023-01-12T01:11:16.540Z,99559.69
2023-01-12T01:13:21.688Z,99558.50
2023-01-12T01:15:26.502Z,99559.68
2023-01-12T01:17:31.414Z,99558.50
2023-01-12T01:19:36.124Z,99562.77
2023-01-12T01:21:40.916Z,99562.60
2023-01-12T01:23:45.951Z,99564.88
2023-01-12T01:25:51.019Z,99565.59
2023-01-12T01:27:56.003Z,99566.34
2023-01-12T01:30:00.788Z,99571.83
2023-01-12T01:32:06.251Z,99575.39
2023-01-12T01:34:10.887Z,99571.71
2023-01-12T01:36:16.509Z,99575.58
2023-01-12T01:38:21.693Z,99573.98
2023-01-12T01:40:26.413Z,99571.83
2023-01-12T01:42:31.301Z,99570.44
2023-01-12T01:44:58.198Z,99573.38
2023-01-12T01:47:06.542Z,99580.98
2023-01-12T01:49:24.886Z,99580.81
2023-01-12T01:51:29.728Z,99582.66
2023-01-12T01:53:37.947Z,99586.50
2023-01-12T01:55:46.715Z,99585.44
2023-01-12T01:57:56.659Z,99581.70
2023-01-12T02:00:03.097Z,99579.86
2023-01-12T02:02:14.940Z,99582.05
2023-01-12T02:04:19.794Z,99578.53
2023-01-12T02:06:27.347Z,99580.13
2023-01-12T02:08:41.827Z,99582.63
2023-01-12T02:10:46.926Z,99587.31
2023-01-12T02:12:52.223Z,99587.39
2023-01-12T02:14:56.987Z,99586.45
2023-01-12T02:17:14.096Z,99587.94
2023-01-12T02:19:39.750Z,99593.05
2023-01-12T02:22:22.580Z,99594.77
2023-01-12T02:24:53.359Z,99601.06
2023-01-12T02:27:31.480Z,99596.57
2023-01-12T02:30:14.850Z,99600.90
2023-01-12T02:32:26.635Z,99608.68
2023-01-12T02:34:37.454Z,99605.12
2023-01-12T02:36:50.837Z,99608.92
2023-01-12T02:39:04.600Z,99608.90
2023-01-12T02:41:21.069Z,99610.63
2023-01-12T02:43:29.038Z,99609.84
2023-01-12T02:45:41.187Z,99606.36
2023-01-12T02:47:51.452Z,99609.85
2023-01-12T02:49:59.705Z,99610.34
2023-01-12T02:52:09.354Z,99611.77
2023-01-12T02:54:17.708Z,99611.20
2023-01-12T02:56:25.281Z,99609.86
2023-01-12T02:58:32.461Z,99612.77
2023-01-12T03:00:40.681Z,99614.52
2023-01-12T03:02:45.349Z,99614.98
2023-01-12T03:04:50.176Z,99614.52
2023-01-12T03:07:24.867Z,99610.55
2023-01-12T03:09:35.447Z,99611.85
2023-01-12T03:11:42.966Z,99609.81
2023-01-12T03:13:51.052Z,99613.69
2023-01-12T03:15:57.608Z,99612.08
2023-01-12T03:18:09.069Z,99611.33
2023-01-12T03:20:17.666Z,99614.96
2023-01-12T03:22:24.140Z,99613.65
2023-01-12T03:24:35.403Z,99610.48
2023-01-12T03:26:43.736Z,99617.95
2023-01-12T03:28:54.983Z,99618.07
2023-01-12T03:31:03.564Z,99615.69
2023-01-12T03:33:09.154Z,99614.63
2023-01-12T03:35:14.408Z,99618.36
2023-01-12T03:37:25.876Z,99618.94
2023-01-12T03:39:37.600Z,99615.98
2023-01-12T03:41:54.721Z,99610.41
2023-01-12T03:44:04.881Z,99614.86
2023-01-12T03:46:16.178Z,99615.12
2023-01-12T03:48:26.599Z,99620.02
2023-01-12T03:50:36.746Z,99618.55
2023-01-12T03:52:43.555Z,99619.24
2023-01-12T03:54:49.919Z,99625.70
2023-01-12T03:56:55.234Z,99625.77
2023-01-12T03:59:00.055Z,99627.95
2023-01-12T04:01:05.859Z,99634.50
2023-01-12T04:03:14.275Z,99632.57
2023-01-12T04:05:19.025Z,99632.65
2023-01-12T04:07:23.732Z,99628.13
2023-01-12T04:09:28.536Z,99627.30
2023-01-12T04:11:33.305Z,99630.05
2023-01-12T04:13:37.964Z,99634.35
2023-01-12T04:15:42.764Z,99637.23
2023-01-12T04:17:47.561Z,99640.53
2023-01-12T04:19:52.414Z,99640.15
2023-01-12T04:21:57.188Z,99633.73
2023-01-12T04:24:01.966Z,99632.45
2023-01-12T04:26:06.986Z,99638.38
2023-01-12T04:28:11.686Z,99646.71
2023-01-12T04:30:18.749Z,99649.70
2023-01-12T04:32:23.469Z,99650.81
2023-01-12T04:34:28.252Z,99650.55
2023-01-12T04:36:33.067Z,99655.05
2023-01-12T04:38:38.261Z,99662.05
2023-01-12T04:40:42.990Z,99658.89
2023-01-12T04:42:51.597Z,99660.10
2023-01-12T04:44:56.263Z,99658.74
2023-01-12T04:47:00.988Z,99664.91
2023-01-12T04:49:05.727Z,99666.10
2023-01-12T04:51:10.469Z,99664.36
2023-01-12T04:53:15.308Z,99664.95
2023-01-12T04:55:21.662Z,99664.81
2023-01-12T04:57:26.341Z,99669.80
2023-01-12T04:59:31.732Z,99673.67
2023-01-12T05:01:36.593Z,99677.13
2023-01-12T05:03:41.477Z,99683.12
2023-01-12T05:05:46.140Z,99684.83
2023-01-12T05:07:50.759Z,99686.36
2023-01-12T05:09:55.582Z,99684.20
2023-01-12T05:12:01.513Z,99691.53
2023-01-12T05:14:06.342Z,99692.77
2023-01-12T05:16:16.388Z,99694.17
2023-01-12T05:18:21.574Z,99697.89
2023-01-12T05:20:26.304Z,99706.76
2023-01-12T05:22:32.424Z,99703.36
2023-01-12T05:24:37.285Z,99699.52
2023-01-12T05:26:42.001Z,99699.50
2023-01-12T05:28:49.177Z,99701.40
2023-01-12T05:30:53.980Z,99698.82
2023-01-12T05:32:58.793Z,99701.66
2023-01-12T05:35:03.843Z,99706.63
2023-01-12T05:37:08.563Z,99705.10
2023-01-12T05:39:13.533Z,99718.29
2023-01-12T05:41:18.287Z,99715.41
2023-01-12T05:43:22.978Z,99711.29
2023-01-12T05:45:27.951Z,99718.77
2023-01-12T05:47:32.595Z,99721.14
2023-01-12T05:49:37.327Z,99718.41
2023-01-12T05:51:42.111Z,99717.31
2023-01-12T05:53:47.161Z,99720.05
2023-01-12T05:55:51.915Z,99723.27
2023-01-12T05:57:56.835Z,99725.00
2023-01-12T06:00:01.934Z,99723.55
2023-01-12T06:02:16.993Z,99726.52
2023-01-12T06:04:21.756Z,99727.63
2023-01-12T06:06:28.576Z,99739.95
2023-01-12T06:08:33.344Z,99737.70
2023-01-12T06:10:38.128Z,99742.70
2023-01-12T06:12:42.918Z,99743.52
2023-01-12T06:14:47.649Z,99744.13
2023-01-12T06:16:52.383Z,99748.95
2023-01-12T06:19:01.096Z,99758.36
2023-01-12T06:21:07.583Z,99747.77
2023-01-12T06:23:12.219Z,99757.08
2023-01-12T06:25:17.008Z,99754.80
2023-01-12T06:27:21.826Z,99755.31
2023-01-12T06:29:26.562Z,99753.68
2023-01-12T06:31:31.241Z,99755.71
2023-01-12T06:33:36.519Z,99764.09
2023-01-12T06:35:47.509Z,99767.88
2023-01-12T06:37:57.356Z,99760.75
2023-01-12T06:40:02.145Z,99764.79
2023-01-12T06:42:07.497Z,99764.05
2023-01-12T06:44:12.327Z,99764.95
2023-01-12T06:46:20.175Z,99765.89
2023-01-12T06:48:25.320Z,99767.98
2023-01-12T06:50:29.970Z,99771.38
2023-01-12T06:52:34.780Z,99767.84
2023-01-12T06:54:40.947Z,99768.83
2023-01-12T06:56:45.644Z,99766.01
2023-01-12T06:58:50.380Z,99770.05
2023-01-12T07:01:00.177Z,99771.84
2023-01-12T07:03:05.047Z,99771.28
2023-01-12T07:05:10.631Z,99779.02
2023-01-12T07:07:15.393Z,99784.58
2023-01-12T07:09:20.104Z,99782.09
2023-01-12T07:11:25.060Z,99776.09
2023-01-12T07:13:30.538Z,99781.47
2023-01-12T07:15:35.416Z,99786.04
2023-01-12T07:17:40.468Z,99784.42
2023-01-12T07:19:45.202Z,99787.00
2023-01-12T07:21:50.929Z,99782.24
2023-01-12T07:23:55.714Z,99782.68
2023-01-12T07:26:00.583Z,99782.88
2023-01-12T07:28:05.576Z,99780.41
2023-01-12T07:30:12.422Z,99782.21
2023-01-12T07:32:17.125Z,99781.95
2023-01-12T07:34:22.157Z,99782.35
2023-01-12T07:36:26.956Z,99787.71
2023-01-12T07:38:34.057Z,99788.45
2023-01-12T07:40:41.343Z,99781.83
2023-01-12T07:42:46.182Z,99780.34
2023-01-12T07:44:51.247Z,99772.13
2023-01-12T07:46:56.117Z,99775.09
2023-01-12T07:49:00.973Z,99774.51
2023-01-12T07:51:06.079Z,99769.80
2023-01-12T07:53:10.792Z,99769.00
2023-01-12T07:55:15.738Z,99765.39
2023-01-12T07:57:20.662Z,99765.41
2023-01-12T07:59:25.476Z,99767.86
2023-01-12T08:01:30.617Z,99763.73
2023-01-12T08:03:35.576Z,99760.02
2023-01-12T08:05:41.626Z,99753.83
2023-01-12T08:07:46.407Z,99754.67
2023-01-12T08:09:51.120Z,99747.05
2023-01-12T08:11:55.849Z,99747.80
2023-01-12T08:14:00.614Z,99753.17
2023-01-12T08:16:11.931Z,99753.77
2023-01-12T08:18:21.596Z,99748.30
2023-01-12T08:20:32.101Z,99752.71
2023-01-12T08:22:41.199Z,99749.93
2023-01-12T08:24:50.524Z,99742.56
2023-01-12T08:27:00.277Z,99749.88
2023-01-12T08:29:12.905Z,99750.80
2023-01-12T08:33:30.027Z,99752.05
2023-01-12T08:35:37.606Z,99747.21
2023-01-12T08:37:42.711Z,99749.02
2023-01-12T08:39:47.782Z,99750.83
2023-01-12T08:41:52.512Z,99753.46
2023-01-12T08:43:57.275Z,99755.27
2023-01-12T08:46:02.105Z,99753.79
2023-01-12T08:48:07.260Z,99758.40
2023-01-12T08:50:12.892Z,99756.98
2023-01-12T08:52:17.974Z,99757.59
2023-01-12T08:54:24.163Z,99756.88
2023-01-12T08:56:29.421Z,99755.65
2023-01-12T08:58:34.186Z,99754.13
2023-01-12T09:00:39.039Z,99752.98
2023-01-12T09:02:43.908Z,99754.11
2023-01-12T09:04:48.601Z,99756.57
2023-01-12T09:06:53.557Z,99740.63
2023-01-12T09:09:00.963Z,99744.45
2023-01-12T09:11:06.363Z,99750.23
2023-01-12T09:13:11.092Z,99744.80
2023-01-12T09:15:15.931Z,99751.08
2023-01-12T09:17:20.652Z,99748.23
2023-01-12T09:19:25.430Z,99743.86
2023-01-12T09:21:31.506Z,99745.20
2023-01-12T09:23:36.769Z,99745.52
2023-01-12T09:25:41.510Z,99747.13
2023-01-12T09:27:46.309Z,99745.58
2023-01-12T09:29:50.975Z,99745.61
2023-01-12T09:31:55.782Z,99749.06
2023-01-12T09:34:01.097Z,99740.53
2023-01-12T09:36:08.672Z,99749.73
2023-01-12T09:38:17.682Z,99735.55
2023-01-12T09:40:23.565Z,99729.10
2023-01-12T09:42:28.428Z,99732.24
2023-01-12T09:44:35.946Z,99727.56
2023-01-12T09:46:43.859Z,99730.53
2023-01-12T09:48:48.713Z,99729.55
2023-01-12T09:50:58.753Z,99723.61
2023-01-12T09:53:07.425Z,99721.60
2023-01-12T09:55:16.919Z,99722.84
2023-01-12T09:57:47.983Z,99715.44
2023-01-12T10:00:02.032Z,99714.54
2023-01-12T10:02:16.805Z,99718.06
2023-01-12T10:04:22.625Z,99718.44
2023-01-12T10:06:27.661Z,99715.70
2023-01-12T10:08:36.677Z,99707.30
2023-01-12T10:10:48.180Z,99711.88
2023-01-12T10:12:59.161Z,99709.42
2023-01-12T10:15:37.474Z,99704.85
2023-01-12T10:17:51.568Z,99705.36
2023-01-12T10:20:05.398Z,99702.31
2023-01-12T10:22:18.751Z,99704.80
2023-01-12T10:24:25.551Z,99702.98
2023-01-12T10:26:37.860Z,99700.23
2023-01-12T10:28:45.765Z,99699.12
2023-01-12T10:30:50.959Z,99701.31
2023-01-12T10:32:55.795Z,99699.45
2023-01-12T10:35:00.558Z,99686.92
2023-01-12T10:37:05.449Z,99692.33
2023-01-12T10:39:30.467Z,99687.11
2023-01-12T10:41:36.155Z,99677.40
2023-01-12T10:43:42.038Z,99678.21
2023-01-12T10:46:01.914Z,99673.27
2023-01-12T10:48:20.868Z,99673.05
2023-01-12T10:50:28.483Z,99673.15
2023-01-12T10:52:40.111Z,99668.70
2023-01-12T10:54:50.293Z,99654.41
2023-01-12T10:57:02.988Z,99658.63
2023-01-12T10:59:17.235Z,99654.71
2023-01-12T11:01:22.721Z,99646.86
2023-01-12T11:03:35.675Z,99651.48
2023-01-12T11:05:40.884Z,99641.80
2023-01-12T11:07:50.954Z,99652.46
2023-01-12T11:09:56.635Z,99644.38
2023-01-12T11:12:02.981Z,99647.27
2023-01-12T11:14:22.687Z,99640.55
2023-01-12T11:16:33.471Z,99636.98
2023-01-12T11:18:44.215Z,99629.14
2023-01-12T11:20:53.008Z,99624.34
2023-01-12T11:23:01.142Z,99619.90
2023-01-12T11:25:10.750Z,99619.50
2023-01-12T11:27:22.317Z,99615.77
2023-01-12T11:29:41.511Z,99608.52
2023-01-12T11:31:48.511Z,99606.19
2023-01-12T11:33:58.687Z,99597.65
2023-01-12T11:36:08.371Z,99589.34
2023-01-12T11:38:17.530Z,99586.34
2023-01-12T11:40:30.678Z,99589.46
2023-01-12T11:42:37.934Z,99587.35
2023-01-12T11:44:50.298Z,99580.27
2023-01-12T11:46:59.625Z,99575.91
2023-01-12T11:49:11.665Z,99568.34
2023-01-12T11:51:16.810Z,99568.74
2023-01-12T11:53:24.764Z,99558.84
2023-01-12T11:55:43.944Z,99559.83
2023-01-12T11:58:02.183Z,99552.66
2023-01-12T12:00:24.649Z,99557.73
2023-01-12T12:02:36.066Z,99551.55
2023-01-12T12:04:56.439Z,99551.45
2023-01-12T12:07:20.698Z,99549.25
2023-01-12T12:09:39.634Z,99540.16
2023-01-12T12:11:51.848Z,99539.18
2023-01-12T12:14:10.381Z,99533.95
2023-01-12T12:16:27.220Z,99530.49
2023-01-12T12:18:42.947Z,99524.77
2023-01-12T12:21:03.801Z,99536.17
2023-01-12T12:23:23.129Z,99536.54
2023-01-12T12:25:38.091Z,99537.33
2023-01-12T12:28:06.086Z,99535.80
2023-01-12T12:30:38.667Z,99536.41
2023-01-12T12:32:50.586Z,99539.10
2023-01-12T12:35:06.368Z,99531.90
2023-01-12T12:37:20.749Z,99530.25
2023-01-12T12:39:49.398Z,99528.08
2023-01-12T12:42:04.536Z,99523.69
2023-01-12T12:44:26.069Z,99528.45
2023-01-12T12:46:39.836Z,99531.88
2023-01-12T12:48:54.021Z,99527.13
2023-01-12T12:51:03.474Z,99531.01
2023-01-12T12:53:19.979Z,99520.61
2023-01-12T12:55:25.380Z,99520.46
2023-01-12T12:57:30.159Z,99513.73
2023-01-12T12:59:56.597Z,99514.57
2023-01-12T13:02:02.841Z,99515.14
2023-01-12T13:04:08.858Z,99515.63
2023-01-12T13:06:19.770Z,99520.80
2023-01-12T13:08:27.158Z,99514.60
2023-01-12T13:10:33.680Z,99512.36
2023-01-12T13:12:38.460Z,99514.45
2023-01-12T13:14:44.337Z,99505.61
2023-01-12T13:16:51.096Z,99511.08
2023-01-12T13:19:11.725Z,99507.73
2023-01-12T13:21:51.838Z,99502.95
2023-01-12T13:24:19.137Z,99499.89
2023-01-12T13:26:44.103Z,99505.18
2023-01-12T13:28:49.241Z,99515.42
2023-01-12T13:30:54.882Z,99511.89
2023-01-12T13:33:01.414Z,99511.09
2023-01-12T13:35:25.496Z,99513.62
2023-01-12T13:37:38.652Z,99511.46
2023-01-12T13:39:52.318Z,99509.16
2023-01-12T13:41:57.364Z,99509.13
2023-01-12T13:44:03.341Z,99505.18
2023-01-12T13:46:16.113Z,99507.79
2023-01-12T13:48:22.164Z,99508.73
2023-01-12T13:50:28.465Z,99509.64
2023-01-12T13:52:34.708Z,99511.02
2023-01-12T13:54:50.118Z,99512.35
2023-01-12T13:56:59.749Z,99514.22
2023-01-12T13:59:06.866Z,99520.52
2023-01-12T14:01:18.816Z,99517.45
2023-01-12T14:03:37.011Z,99513.35
2023-01-12T14:06:00.588Z,99503.75
2023-01-12T14:08:23.045Z,99503.71
2023-01-12T14:10:37.744Z,99500.98
2023-01-12T14:13:00.250Z,99507.19
2023-01-12T14:15:22.916Z,99502.56
2023-01-12T14:17:29.904Z,99500.92
2023-01-12T14:19:34.659Z,99501.64
2023-01-12T14:21:39.624Z,99504.94
2023-01-12T14:23:44.522Z,99504.49
2023-01-12T14:26:05.410Z,99504.42
2023-01-12T14:28:18.254Z,99500.99
2023-01-12T14:30:25.082Z,99501.28
2023-01-12T14:32:29.875Z,99496.50
2023-01-12T14:34:37.302Z,99490.05
2023-01-12T14:36:46.497Z,99481.91
2023-01-12T14:38:52.277Z,99478.24
2023-01-12T14:41:01.960Z,99483.64
2023-01-12T14:43:06.789Z,99481.06
2023-01-12T14:45:24.477Z,99485.65
2023-01-12T14:47:33.871Z,99484.46
2023-01-12T14:49:39.853Z,99485.58
2023-01-12T14:51:53.351Z,99486.98
2023-01-12T14:54:01.732Z,99486.23
2023-01-12T14:56:15.241Z,99487.45
2023-01-12T14:58:21.891Z,99493.78
2023-01-12T15:00:29.984Z,99494.16
2023-01-12T15:02:37.344Z,99497.54
2023-01-12T15:04:52.772Z,99501.25
2023-01-12T15:07:06.389Z,99503.02
2023-01-12T15:09:26.452Z,99508.20
2023-01-12T15:11:34.084Z,99510.00
2023-01-12T15:13:39.327Z,99512.30
2023-01-12T15:15:44.084Z,99519.83
2023-01-12T15:17:50.107Z,99522.63
2023-01-12T15:19:54.868Z,99521.07
2023-01-12T15:22:00.301Z,99523.01
2023-01-12T15:24:16.806Z,99519.27
2023-01-12T15:26:22.572Z,99515.84
2023-01-12T15:28:27.399Z,99517.52
2023-01-12T15:30:35.444Z,99515.96
2023-01-12T15:32:47.624Z,99518.68
2023-01-12T15:34:53.003Z,99515.40
2023-01-12T15:36:58.056Z,99517.83
2023-01-12T15:39:02.877Z,99521.20
2023-01-12T15:41:15.301Z,99516.95
2023-01-12T15:43:20.050Z,99509.45
2023-01-12T15:45:32.510Z,99494.77
2023-01-12T15:47:37.218Z,99491.48
2023-01-12T15:49:42.918Z,99495.34
2023-01-12T15:51:49.597Z,99493.38
2023-01-12T15:53:54.327Z,99483.09
2023-01-12T15:55:59.308Z,99484.15
2023-01-12T15:58:04.029Z,99480.48
2023-01-12T16:00:13.970Z,99482.86
2023-01-12T16:02:30.626Z,99494.02
2023-01-12T16:04:42.841Z,99501.39
2023-01-12T16:06:48.877Z,99500.73
2023-01-12T16:08:53.613Z,99508.09
2023-01-12T16:10:58.469Z,99501.27
2023-01-12T16:13:07.727Z,99511.17
2023-01-12T16:15:18.408Z,99491.70
2023-01-12T16:17:23.333Z,99456.66
2023-01-12T16:19:28.121Z,99454.13
2023-01-12T16:21:34.143Z,99449.56
2023-01-12T16:23:38.997Z,99437.77
2023-01-12T16:25:43.913Z,99435.48
2023-01-12T16:27:48.836Z,99431.03
2023-01-12T16:29:53.784Z,99431.48
2023-01-12T16:31:58.663Z,99438.67
2023-01-12T16:34:04.163Z,99442.70
2023-01-12T16:36:10.598Z,99448.79
2023-01-12T16:38:16.964Z,99446.29
2023-01-12T16:40:22.343Z,99440.04
2023-01-12T16:42:27.430Z,99438.84
2023-01-12T16:44:33.669Z,99441.07
2023-01-12T16:46:38.389Z,99440.82
2023-01-12T16:48:43.732Z,99437.87
2023-01-12T16:50:48.609Z,99439.80
2023-01-12T16:52:53.357Z,99441.16
2023-01-12T16:54:58.052Z,99439.97
2023-01-12T16:57:02.819Z,99447.52
2023-01-12T16:59:07.648Z,99447.26
2023-01-12T17:01:14.339Z,99447.20
2023-01-12T17:03:19.424Z,99447.68
2023-01-12T17:05:24.387Z,99440.07
2023-01-12T17:07:29.833Z,99449.34
2023-01-12T17:09:37.216Z,99456.00
2023-01-12T17:11:42.592Z,99462.11
2023-01-12T17:13:52.406Z,99462.11
2023-01-12T17:15:57.541Z,99472.54
2023-01-12T17:18:02.729Z,99462.89
2023-01-12T17:20:09.269Z,99460.67
2023-01-12T17:22:14.089Z,99466.61
2023-01-12T17:24:19.207Z,99461.04
2023-01-12T17:26:24.724Z,99469.06
2023-01-12T17:28:29.546Z,99474.84
2023-01-12T17:30:34.476Z,99472.73
2023-01-12T17:32:39.390Z,99471.43
2023-01-12T17:34:44.216Z,99478.08
2023-01-12T17:36:49.213Z,99483.63
2023-01-12T17:38:53.896Z,99480.27
2023-01-12T17:40:58.859Z,99475.52
2023-01-12T17:43:03.570Z,99474.54
2023-01-12T17:45:09.769Z,99478.77
2023-01-12T17:47:14.444Z,99477.86
2023-01-12T17:49:19.169Z,99480.73
2023-01-12T17:51:24.065Z,99480.96
2023-01-12T17:53:28.823Z,99478.65
2023-01-12T17:55:36.742Z,99473.61
2023-01-12T17:57:41.738Z,99480.41
2023-01-12T17:59:46.583Z,99482.04
2023-01-12T18:01:52.124Z,99476.84
2023-01-12T18:03:57.449Z,99477.99
2023-01-12T18:06:04.751Z,99472.80
2023-01-12T18:08:11.917Z,99471.73
2023-01-12T18:10:16.953Z,99473.93
2023-01-12T18:12:21.684Z,99473.12
2023-01-12T18:14:26.487Z,99464.63
2023-01-12T18:16:31.645Z,99466.38
2023-01-12T18:18:36.793Z,99459.09
2023-01-12T18:20:42.325Z,99462.37
2023-01-12T18:22:47.283Z,99461.67
2023-01-12T18:24:52.078Z,99459.42
2023-01-12T18:26:57.214Z,99456.73
2023-01-12T18:29:04.165Z,99455.73
2023-01-12T18:31:12.069Z,99452.18
2023-01-12T18:33:16.881Z,99451.46
2023-01-12T18:35:21.725Z,99448.44
2023-01-12T18:37:26.921Z,99448.00
2023-01-12T18:39:32.025Z,99449.26
2023-01-12T18:41:38.566Z,99447.98
2023-01-12T18:43:43.709Z,99444.52
2023-01-12T18:45:49.223Z,99445.52
2023-01-12T18:47:54.229Z,99445.90
2023-01-12T18:49:59.027Z,99443.84
2023-01-12T18:52:05.796Z,99444.67
2023-01-12T18:54:10.508Z,99447.26
2023-01-12T18:56:15.777Z,99447.70
2023-01-12T18:58:20.956Z,99446.13
2023-01-12T19:00:27.355Z,99452.58
2023-01-12T19:02:33.066Z,99451.45
2023-01-12T19:04:42.782Z,99445.05
2023-01-12T19:06:47.987Z,99449.38
2023-01-12T19:08:53.538Z,99453.09
2023-01-12T19:11:10.033Z,99451.47
2023-01-12T19:13:16.296Z,99453.33
2023-01-12T19:15:22.062Z,99451.14
2023-01-12T19:17:27.243Z,99454.19
2023-01-12T19:19:34.542Z,99459.61
2023-01-12T19:21:39.499Z,99460.43
2023-01-12T19:23:45.047Z,99459.82
2023-01-12T19:25:50.480Z,99451.94
2023-01-12T19:27:55.413Z,99448.94
2023-01-12T19:30:00.905Z,99450.19
2023-01-12T19:32:07.133Z,99445.39
2023-01-12T19:34:12.734Z,99445.02
2023-01-12T19:36:23.639Z,99437.05
2023-01-12T19:38:28.880Z,99440.27
2023-01-12T19:40:38.222Z,99436.19
2023-01-12T19:42:44.476Z,99439.69
2023-01-12T19:44:50.772Z,99438.06
2023-01-12T19:46:55.995Z,99440.20
2023-01-12T19:49:01.747Z,99432.96
2023-01-12T19:51:10.848Z,99433.38
2023-01-12T19:53:20.114Z,99434.14
2023-01-12T19:55:25.421Z,99433.48
2023-01-12T19:57:31.840Z,99431.83
2023-01-12T19:59:37.197Z,99430.52
2023-01-12T20:01:42.876Z,99427.17
2023-01-12T20:03:49.139Z,99429.51
2023-01-12T20:05:56.546Z,99431.33
2023-01-12T20:08:01.591Z,99429.60
2023-01-12T20:10:08.828Z,99427.44
2023-01-12T20:12:16.448Z,99430.56
2023-01-12T20:14:22.491Z,99425.84
2023-01-12T20:16:28.239Z,99424.95
2023-01-12T20:18:34.218Z,99421.08
2023-01-12T20:20:42.361Z,99419.16
2023-01-12T20:22:50.497Z,99418.81
2023-01-12T20:24:55.589Z,99421.42
2023-01-12T20:27:01.681Z,99422.45
2023-01-12T20:29:08.095Z,99421.23
2023-01-12T20:31:16.120Z,99421.16
2023-01-12T20:33:22.240Z,99423.98
2023-01-12T20:35:28.873Z,99425.22
2023-01-12T20:37:34.843Z,99423.64
2023-01-12T20:39:40.268Z,99424.84
2023-01-12T20:41:46.730Z,99426.11
2023-01-12T20:43:51.916Z,99422.45
2023-01-12T20:45:57.350Z,99419.66
2023-01-12T20:48:02.826Z,99420.80
2023-01-12T20:50:09.670Z,99416.77
2023-01-12T20:52:15.230Z,99415.41
2023-01-12T20:54:20.715Z,99413.36
2023-01-12T20:56:26.672Z,99413.04
2023-01-12T20:58:32.369Z,99412.67
2023-01-12T21:00:37.565Z,99411.58
2023-01-12T21:02:42.541Z,99412.11
2023-01-12T21:04:47.634Z,99411.96
2023-01-12T21:06:52.910Z,99412.69
2023-01-12T21:08:59.062Z,99410.59
2023-01-12T21:11:04.102Z,99412.89
2023-01-12T21:13:09.103Z,99416.11
2023-01-12T21:15:13.844Z,99413.33
2023-01-12T21:17:18.863Z,99414.94
2023-01-12T21:19:23.595Z,99414.09
2023-01-12T21:21:28.336Z,99410.10
2023-01-12T21:23:33.243Z,99409.67
2023-01-12T21:25:42.106Z,99403.92
2023-01-12T21:27:46.841Z,99402.63
2023-01-12T21:29:51.603Z,99401.24
2023-01-12T21:31:56.463Z,99403.86
2023-01-12T21:34:01.711Z,99402.61
2023-01-12T21:36:07.563Z,99405.83
2023-01-12T21:38:12.272Z,99407.30
2023-01-12T21:40:17.679Z,99406.07
2023-01-12T21:42:22.374Z,99406.41
2023-01-12T21:44:27.069Z,99401.29
2023-01-12T21:46:31.803Z,99402.02
2023-01-12T21:48:36.820Z,99401.83
2023-01-12T21:50:42.177Z,99401.98
2023-01-12T21:52:47.248Z,99399.25
2023-01-12T21:54:51.924Z,99396.42
2023-01-12T21:56:56.660Z,99397.86
2023-01-12T21:59:01.383Z,99392.63
2023-01-12T22:01:11.622Z,99393.15
2023-01-12T22:03:16.730Z,99393.16
2023-01-12T22:05:21.693Z,99395.23
2023-01-12T22:07:28.963Z,99400.11
2023-01-12T22:09:33.786Z,99399.86
2023-01-12T22:11:38.489Z,99402.46
2023-01-12T22:13:43.850Z,99399.55
2023-01-12T22:15:48.788Z,99397.22
2023-01-12T22:17:54.570Z,99397.04
2023-01-12T22:19:59.377Z,99397.69
2023-01-12T22:22:04.046Z,99402.88
2023-01-12T22:24:09.388Z,99400.83
2023-01-12T22:26:15.187Z,99399.86
2023-01-12T22:28:20.161Z,99398.66
2023-01-12T22:30:25.804Z,99396.98
2023-01-12T22:32:30.992Z,99390.33
2023-01-12T22:34:35.740Z,99394.09
2023-01-12T22:36:40.614Z,99392.55
2023-01-12T22:38:45.432Z,99394.56
2023-01-12T22:40:50.177Z,99392.90
2023-01-12T22:42:54.813Z,99397.62
2023-01-12T22:44:59.501Z,99394.31
2023-01-12T22:47:04.245Z,99395.25
2023-01-12T22:49:11.032Z,99396.48
2023-01-12T22:51:15.947Z,99395.02
2023-01-12T22:53:20.825Z,99393.64
2023-01-12T22:55:26.147Z,99391.70
2023-01-12T22:57:30.811Z,99393.61
2023-01-12T22:59:35.496Z,99389.01
2023-01-12T23:01:41.117Z,99388.30
2023-01-12T23:03:46.100Z,99389.39
2023-01-12T23:05:51.758Z,99385.16
2023-01-12T23:07:56.735Z,99383.07
2023-01-12T23:10:01.668Z,99382.01
2023-01-12T23:12:07.070Z,99380.71
2023-01-12T23:14:11.959Z,99381.38
2023-01-12T23:16:18.854Z,99381.67
2023-01-12T23:18:26.239Z,99381.87
2023-01-12T23:20:32.785Z,99376.30
2023-01-12T23:22:37.564Z,99381.20
2023-01-12T23:24:42.407Z,99375.57
2023-01-12T23:26:47.165Z,99369.83
2023-01-12T23:28:54.106Z,99369.98
2023-01-12T23:31:06.240Z,99369.81
2023-01-12T23:33:11.775Z,99367.15
2023-01-12T23:35:17.595Z,99367.06
2023-01-12T23:37:22.350Z,99362.34
2023-01-12T23:39:27.243Z,99357.46
2023-01-12T23:41:33.469Z,99360.07
2023-01-12T23:43:38.291Z,99362.25
2023-01-12T23:45:43.124Z,99360.23
2023-01-12T23:47:47.962Z,99355.92
2023-01-12T23:49:52.862Z,99358.52
2023-01-12T23:51:57.659Z,99363.61
2023-01-12T23:54:03.151Z,99363.41
2023-01-12T23:56:09.772Z,99363.06
2023-01-12T23:58:14.598Z,99364.96
